createdAt,value
2018-12-13T00:00:18.272Z,13.70
2018-12-13T00:01:22.078Z,13.40
2018-12-13T00:02:21.050Z,13.40
2018-12-13T00:03:33.964Z,13.50
2018-12-13T00:04:33.254Z,13.30
2018-12-13T00:05:41.871Z,13.40
2018-12-13T00:06:43.615Z,12.80
2018-12-13T00:07:45.979Z,12.80
2018-12-13T00:08:53.664Z,12.80
2018-12-13T00:10:07.401Z,12.50
2018-12-13T00:11:14.266Z,13.00
2018-12-13T00:12:18.067Z,12.30
2018-12-13T00:13:21.554Z,13.30
2018-12-13T00:14:30.062Z,12.90
2018-12-13T00:15:29.252Z,13.40
2018-12-13T00:16:34.996Z,12.60
2018-12-13T00:17:49.247Z,12.60
2018-12-13T00:18:46.075Z,13.10
2018-12-13T00:19:51.516Z,13.20
2018-12-13T00:20:52.441Z,12.90
2018-12-13T00:22:05.876Z,12.40
2018-12-13T00:23:15.503Z,12.70
2018-12-13T00:24:16.029Z,12.90
2018-12-13T00:25:19.107Z,12.50
2018-12-13T00:26:28.016Z,13.20
2018-12-13T00:27:41.035Z,12.40
2018-12-13T00:28:39.503Z,12.50
2018-12-13T00:29:52.107Z,13.10
2018-12-13T00:30:50.271Z,13.20
2018-12-13T00:31:56.630Z,13.00
2018-12-13T00:33:02.268Z,12.60
2018-12-13T00:34:03.199Z,12.40
2018-12-13T00:35:01.875Z,12.80
2018-12-13T00:36:15.315Z,12.50
2018-12-13T00:37:20.532Z,12.70
2018-12-13T00:38:24.331Z,12.90
2018-12-13T00:39:28.535Z,12.80
2018-12-13T00:40:31.108Z,12.70
2018-12-13T00:41:55.796Z,12.50
2018-12-13T00:42:46.689Z,12.50
2018-12-13T00:44:02.272Z,12.50
2018-12-13T00:44:54.488Z,12.60
2018-12-13T00:46:03.211Z,12.30
2018-12-13T00:47:10.380Z,12.70
2018-12-13T00:48:12.740Z,12.70
2018-12-13T00:49:21.146Z,13.10
2018-12-13T00:50:24.638Z,13.40
2018-12-13T00:51:29.255Z,12.60
2018-12-13T00:52:33.875Z,12.70
2018-12-13T00:53:40.741Z,12.90
2018-12-13T00:55:06.762Z,12.00
2018-12-13T00:55:54.076Z,12.60
2018-12-13T00:57:00.947Z,12.10
2018-12-13T00:58:01.056Z,12.50
2018-12-13T00:59:13.865Z,12.20
2018-12-13T01:00:15.101Z,12.60
2018-12-13T01:01:19.514Z,12.50
2018-12-13T01:02:31.710Z,12.20
2018-12-13T01:03:31.819Z,12.30
2018-12-13T01:04:42.068Z,12.40
2018-12-13T01:05:49.654Z,12.20
2018-12-13T01:06:45.826Z,12.20
2018-12-13T01:07:58.345Z,12.20
2018-12-13T01:09:02.479Z,11.90
2018-12-13T01:10:05.458Z,12.80
2018-12-13T01:11:13.868Z,12.40
2018-12-13T01:12:16.941Z,12.70
2018-12-13T01:13:24.840Z,12.90
2018-12-13T01:14:33.450Z,12.40
2018-12-13T01:15:37.342Z,12.90
2018-12-13T01:16:32.369Z,12.80
2018-12-13T01:17:44.323Z,12.40
2018-12-13T01:18:57.234Z,12.80
2018-12-13T01:20:00.211Z,12.70
2018-12-13T01:20:55.923Z,12.80
2018-12-13T01:22:03.412Z,12.60
2018-12-13T01:23:07.307Z,12.80
2018-12-13T01:24:16.941Z,12.80
2018-12-13T01:25:20.848Z,12.80
2018-12-13T01:26:27.401Z,12.40
2018-12-13T01:27:30.483Z,12.70
2018-12-13T01:28:39.914Z,12.90
2018-12-13T01:29:39.924Z,12.30
2018-12-13T01:30:46.801Z,12.90
2018-12-13T01:31:53.362Z,12.70
2018-12-13T01:33:01.249Z,13.20
2018-12-13T01:34:10.781Z,13.00
2018-12-13T01:35:11.617Z,12.90
2018-12-13T01:36:23.905Z,13.30
2018-12-13T01:37:24.267Z,13.40
2018-12-13T01:38:25.152Z,13.70
2018-12-13T01:39:29.974Z,13.10
2018-12-13T01:40:46.779Z,13.60
2018-12-13T01:41:46.886Z,13.40
2018-12-13T01:42:48.639Z,13.40
2018-12-13T01:43:56.835Z,13.70
2018-12-13T01:45:01.658Z,13.50
2018-12-13T01:46:14.670Z,13.40
2018-12-13T01:47:11.404Z,13.00
2018-12-13T01:48:22.576Z,13.40
2018-12-13T01:49:31.395Z,13.70
2018-12-13T01:50:28.541Z,12.90
2018-12-13T01:51:46.672Z,13.30
2018-12-13T01:52:43.195Z,13.30
2018-12-13T01:53:50.170Z,13.20
2018-12-13T01:54:56.932Z,13.50
2018-12-13T01:56:09.542Z,13.30
2018-12-13T01:57:02.068Z,12.90
2018-12-13T01:58:04.127Z,13.00
2018-12-13T01:59:25.229Z,12.90
2018-12-13T02:00:25.238Z,13.70
2018-12-13T02:01:34.464Z,13.30
2018-12-13T02:02:31.402Z,13.30
2018-12-13T02:03:36.326Z,13.30
2018-12-13T02:04:46.982Z,13.40
2018-12-13T02:05:51.085Z,13.20
2018-12-13T02:06:58.703Z,13.20
2018-12-13T02:08:12.817Z,13.40
2018-12-13T02:09:14.875Z,13.60
2018-12-13T02:10:16.212Z,13.50
2018-12-13T02:11:19.191Z,13.50
2018-12-13T02:12:28.519Z,13.70
2018-12-13T02:13:36.311Z,13.50
2018-12-13T02:14:35.194Z,13.70
2018-12-13T02:15:52.403Z,14.00
2018-12-13T02:16:46.472Z,13.70
2018-12-13T02:17:57.747Z,13.50
2018-12-13T02:19:04.309Z,13.60
2018-12-13T02:20:05.550Z,14.00
2018-12-13T02:21:15.824Z,13.60
2018-12-13T02:22:09.044Z,13.20
2018-12-13T02:23:22.159Z,13.50
2018-12-13T02:24:25.750Z,13.60
2018-12-13T02:25:38.661Z,13.20
2018-12-13T02:26:30.579Z,13.40
2018-12-13T02:27:46.462Z,13.40
2018-12-13T02:28:51.590Z,12.90
2018-12-13T02:29:54.772Z,13.20
2018-12-13T02:31:10.248Z,13.40
2018-12-13T02:31:49.157Z,12.90
2018-12-13T02:33:10.879Z,13.90
2018-12-13T02:34:10.171Z,13.00
2018-12-13T02:35:21.043Z,13.20
2018-12-13T02:36:26.576Z,13.40
2018-12-13T02:37:25.966Z,13.40
2018-12-13T02:38:38.266Z,13.70
2018-12-13T02:39:39.810Z,13.60
2018-12-13T02:40:45.449Z,13.80
2018-12-13T02:41:56.723Z,13.90
2018-12-13T02:42:59.804Z,14.30
2018-12-13T02:43:58.380Z,14.10
2018-12-13T02:45:20.823Z,13.80
2018-12-13T02:46:16.011Z,14.30
2018-12-13T02:47:19.195Z,14.50
2018-12-13T02:48:43.167Z,14.00
2018-12-13T02:49:29.658Z,14.20
2018-12-13T02:50:23.830Z,14.30
2018-12-13T02:51:44.113Z,14.00
2018-12-13T02:52:53.751Z,14.60
2018-12-13T02:54:04.817Z,14.20
2018-12-13T02:54:59.907Z,14.00
2018-12-13T02:56:01.963Z,13.80
2018-12-13T02:57:14.473Z,13.70
2018-12-13T02:58:16.416Z,14.10
2018-12-13T02:59:22.363Z,14.40
2018-12-13T03:00:22.473Z,14.60
2018-12-13T03:01:52.388Z,13.50
2018-12-13T03:02:41.335Z,14.00
2018-12-13T03:03:40.115Z,14.50
2018-12-13T03:05:02.873Z,13.70
2018-12-13T03:06:01.237Z,14.60
2018-12-13T03:06:53.864Z,14.80
2018-12-13T03:08:05.859Z,13.40
2018-12-13T03:09:29.315Z,14.30
2018-12-13T03:10:14.170Z,14.10
2018-12-13T03:11:12.745Z,14.40
2018-12-13T03:12:22.378Z,14.00
2018-12-13T03:13:47.791Z,14.20
2018-12-13T03:14:35.919Z,14.60
2018-12-13T03:15:50.875Z,14.00
2018-12-13T03:16:56.311Z,14.20
2018-12-13T03:18:11.578Z,13.90
2018-12-13T03:18:53.870Z,13.50
2018-12-13T03:20:22.348Z,13.70
2018-12-13T03:21:25.438Z,14.20
2018-12-13T03:22:17.962Z,13.70
2018-12-13T03:23:27.189Z,14.00
2018-12-13T03:24:47.990Z,14.20
2018-12-13T03:25:56.904Z,13.50
2018-12-13T03:26:55.381Z,14.10
2018-12-13T03:27:53.608Z,13.80
2018-12-13T03:29:09.527Z,14.10
2018-12-13T03:30:12.201Z,14.00
2018-12-13T03:31:08.888Z,13.70
2018-12-13T03:32:21.461Z,13.70
2018-12-13T03:33:24.623Z,13.70
2018-12-13T03:34:34.814Z,14.30
2018-12-13T03:35:55.979Z,13.40
2018-12-13T03:36:55.057Z,13.50
2018-12-13T03:37:51.801Z,13.40
2018-12-13T03:38:54.564Z,13.20
2018-12-13T03:40:00.921Z,13.90
2018-12-13T03:41:38.104Z,13.30
2018-12-13T03:42:15.585Z,13.50
2018-12-13T03:43:19.484Z,13.60
2018-12-13T03:44:17.442Z,12.90
2018-12-13T03:45:37.424Z,13.00
2018-12-13T03:46:44.291Z,13.40
2018-12-13T03:47:51.672Z,13.00
2018-12-13T03:48:41.542Z,13.20
2018-12-13T03:50:12.579Z,12.50
2018-12-13T03:51:14.304Z,12.80
2018-12-13T03:52:32.470Z,12.60
2018-12-13T03:53:30.014Z,13.00
2018-12-13T03:54:20.192Z,12.90
2018-12-13T03:55:38.123Z,12.60
2018-12-13T03:56:31.881Z,13.00
2018-12-13T03:58:02.202Z,12.30
2018-12-13T03:58:54.531Z,13.10
2018-12-13T04:00:10.001Z,13.80
2018-12-13T04:00:57.006Z,12.70
2018-12-13T04:02:20.369Z,13.00
2018-12-13T04:03:18.118Z,12.40
2018-12-13T04:04:04.710Z,12.30
2018-12-13T04:05:39.743Z,11.90
2018-12-13T04:07:05.348Z,13.50
2018-12-13T04:08:03.105Z,12.60
2018-12-13T04:09:00.818Z,12.20
2018-12-13T04:10:59.255Z,12.80
2018-12-13T04:11:34.264Z,11.70
2018-12-13T04:13:12.272Z,12.90
2018-12-13T04:14:15.014Z,11.90
2018-12-13T04:15:16.070Z,12.30
2018-12-13T04:16:36.567Z,12.70
2018-12-13T04:17:31.246Z,12.80
2018-12-13T04:19:22.251Z,12.70
2018-12-13T04:20:37.927Z,12.90
2018-12-13T04:22:02.326Z,12.30
2018-12-13T04:23:01.091Z,12.20
2018-12-13T04:23:49.217Z,12.20
2018-12-13T04:25:28.961Z,12.00
2018-12-13T04:26:32.144Z,11.90
2018-12-13T04:27:33.434Z,12.00
2018-12-13T04:28:30.521Z,11.80
2018-12-13T04:30:09.448Z,11.70
2018-12-13T04:31:09.969Z,11.10
2018-12-13T04:32:09.327Z,11.00
2018-12-13T04:33:15.205Z,11.40
2018-12-13T04:34:35.181Z,11.20
2018-12-13T04:35:01.191Z,11.80
2018-12-13T04:37:18.923Z,11.30
2018-12-13T04:38:02.857Z,11.00
2018-12-13T04:39:31.845Z,11.20
2018-12-13T04:40:35.642Z,11.00
2018-12-13T04:41:56.846Z,11.00
2018-12-13T04:42:47.817Z,11.00
2018-12-13T04:44:08.744Z,11.00
2018-12-13T04:45:26.572Z,10.80
2018-12-13T04:47:02.112Z,10.50
2018-12-13T04:48:03.145Z,10.90
2018-12-13T04:49:35.720Z,11.10
2018-12-13T04:50:20.160Z,10.70
2018-12-13T04:51:36.245Z,11.10
2018-12-13T04:52:24.180Z,10.40
2018-12-13T04:53:38.923Z,10.60
2018-12-13T04:55:03.306Z,10.30
2018-12-13T04:55:33.309Z,10.60
2018-12-13T04:56:57.180Z,10.80
2018-12-13T04:58:00.771Z,10.50
2018-12-13T04:59:09.589Z,10.10
2018-12-13T05:00:27.519Z,10.60
2018-12-13T05:01:14.624Z,10.30
2018-12-13T05:02:26.102Z,10.80
2018-12-13T05:03:41.880Z,10.20
2018-12-13T05:04:22.943Z,10.50
2018-12-13T05:06:15.282Z,10.60
2018-12-13T05:06:57.575Z,10.30
2018-12-13T05:08:21.031Z,10.60
2018-12-13T05:09:11.723Z,9.70
2018-12-13T05:10:24.840Z,10.00
2018-12-13T05:11:27.000Z,10.20
2018-12-13T05:12:23.221Z,10.10
2018-12-13T05:13:26.301Z,10.10
2018-12-13T05:14:58.259Z,10.80
2018-12-13T05:15:58.985Z,10.60
2018-12-13T05:17:16.608Z,9.90
2018-12-13T05:18:18.984Z,10.10
2018-12-13T05:19:13.968Z,10.80
2018-12-13T05:20:15.099Z,10.60
2018-12-13T05:21:03.741Z,10.80
2018-12-13T05:22:18.503Z,10.30
2018-12-13T05:23:13.792Z,10.80
2018-12-13T05:24:43.294Z,10.60
2018-12-13T05:25:35.831Z,10.30
2018-12-13T05:27:10.144Z,11.10
2018-12-13T05:28:05.443Z,11.00
2018-12-13T05:29:09.033Z,11.80
2018-12-13T05:30:21.532Z,11.00
2018-12-13T05:31:06.181Z,11.10
2018-12-13T05:32:10.187Z,11.20
2018-12-13T05:33:10.805Z,11.00
2018-12-13T05:34:34.777Z,11.10
2018-12-13T05:35:42.991Z,10.80
2018-12-13T05:36:42.781Z,10.90
2018-12-13T05:37:39.519Z,10.90
2018-12-13T05:38:47.334Z,10.70
2018-12-13T05:39:45.571Z,11.60
2018-12-13T05:40:56.329Z,11.00
2018-12-13T05:41:53.578Z,11.90
2018-12-13T05:43:05.260Z,11.10
2018-12-13T05:44:17.148Z,11.00
2018-12-13T05:45:17.162Z,11.70
2018-12-13T05:46:21.158Z,11.20
2018-12-13T05:47:24.751Z,11.60
2018-12-13T05:48:32.850Z,11.20
2018-12-13T05:49:39.717Z,11.90
2018-12-13T05:50:28.357Z,11.10
2018-12-13T05:51:45.373Z,11.30
2018-12-13T05:52:54.384Z,11.50
2018-12-13T05:54:00.229Z,11.70
2018-12-13T05:54:59.830Z,11.00
2018-12-13T05:56:09.360Z,11.30
2018-12-13T05:57:12.856Z,11.50
2018-12-13T05:58:09.172Z,11.10
2018-12-13T05:59:21.675Z,11.20
2018-12-13T06:00:24.755Z,10.70
2018-12-13T06:01:27.118Z,11.50
2018-12-13T06:02:39.826Z,11.40
2018-12-13T06:03:45.464Z,11.20
2018-12-13T06:04:45.267Z,10.50
2018-12-13T06:05:58.383Z,11.80
2018-12-13T06:07:00.437Z,11.80
2018-12-13T06:07:59.114Z,11.10
2018-12-13T06:09:16.122Z,11.00
2018-12-13T06:10:16.749Z,11.10
2018-12-13T06:11:18.191Z,11.30
2018-12-13T06:12:21.683Z,11.30
2018-12-13T06:13:31.729Z,11.40
2018-12-13T06:14:34.708Z,11.10
2018-12-13T06:15:47.727Z,11.10
2018-12-13T06:16:49.778Z,11.30
2018-12-13T06:17:48.558Z,11.50
2018-12-13T06:19:01.267Z,11.40
2018-12-13T06:19:57.077Z,11.00
2018-12-13T06:21:12.140Z,11.20
2018-12-13T06:22:23.927Z,11.70
2018-12-13T06:23:19.529Z,10.80
2018-12-13T06:24:23.020Z,12.10
2018-12-13T06:25:34.808Z,10.70
2018-12-13T06:26:34.612Z,11.50
2018-12-13T06:27:46.805Z,11.40
2018-12-13T06:28:54.492Z,11.40
2018-12-13T06:29:51.223Z,11.50
2018-12-13T06:30:55.650Z,11.60
2018-12-13T06:32:04.368Z,11.50
2018-12-13T06:33:11.320Z,11.40
2018-12-13T06:34:14.300Z,11.20
2018-12-13T06:35:33.869Z,10.90
2018-12-13T06:36:27.936Z,11.20
2018-12-13T06:37:30.096Z,10.80
2018-12-13T06:38:30.824Z,11.50
2018-12-13T06:39:44.453Z,11.40
2018-12-13T06:40:49.376Z,11.00
2018-12-13T06:41:54.913Z,11.00
2018-12-13T06:42:57.484Z,11.00
2018-12-13T06:44:03.741Z,11.40
2018-12-13T06:45:09.893Z,11.50
2018-12-13T06:46:07.649Z,11.50
2018-12-13T06:47:17.284Z,11.70
2018-12-13T06:48:35.116Z,11.30
2018-12-13T06:49:36.964Z,11.20
2018-12-13T06:50:36.368Z,11.10
2018-12-13T06:51:45.787Z,11.50
2018-12-13T06:52:46.716Z,11.70
2018-12-13T06:53:52.663Z,11.80
2018-12-13T06:54:57.177Z,11.50
2018-12-13T06:56:11.831Z,11.90
2018-12-13T06:57:09.179Z,11.90
2018-12-13T06:58:16.355Z,12.40
2018-12-13T06:59:31.825Z,11.80
2018-12-13T07:00:23.847Z,11.80
2018-12-13T07:01:34.458Z,11.90
2018-12-13T07:02:34.516Z,12.10
2018-12-13T07:03:42.104Z,12.20
2018-12-13T07:04:45.694Z,11.80
2018-12-13T07:05:54.304Z,12.20
2018-12-13T07:07:07.317Z,11.50
2018-12-13T07:08:09.072Z,11.90
2018-12-13T07:09:11.123Z,12.00
2018-12-13T07:10:29.154Z,11.80
2018-12-13T07:11:17.335Z,12.50
2018-12-13T07:12:32.857Z,11.60
2018-12-13T07:13:32.868Z,11.30
2018-12-13T07:14:38.407Z,12.10
2018-12-13T07:15:47.017Z,11.80
2018-12-13T07:16:51.748Z,12.10
2018-12-13T07:17:54.614Z,12.60
2018-12-13T07:19:09.222Z,12.10
2018-12-13T07:20:04.979Z,12.30
2018-12-13T07:21:12.049Z,12.10
2018-12-13T07:22:14.103Z,12.30
2018-12-13T07:23:23.738Z,12.30
2018-12-13T07:24:32.864Z,12.40
2018-12-13T07:25:37.685Z,12.30
2018-12-13T07:26:35.442Z,12.30
2018-12-13T07:27:48.658Z,12.40
2018-12-13T07:29:00.555Z,11.80
2018-12-13T07:30:05.164Z,11.70
2018-12-13T07:31:07.423Z,11.70
2018-12-13T07:32:06.203Z,11.80
2018-12-13T07:33:22.081Z,12.00
2018-12-13T07:34:16.563Z,12.60
2018-12-13T07:35:28.859Z,12.30
2018-12-13T07:36:25.283Z,12.20
2018-12-13T07:37:40.653Z,12.90
2018-12-13T07:38:30.422Z,12.20
2018-12-13T07:39:57.674Z,12.70
2018-12-13T07:40:41.395Z,12.30
2018-12-13T07:41:49.596Z,11.80
2018-12-13T07:43:06.295Z,12.00
2018-12-13T07:44:04.462Z,12.50
2018-12-13T07:45:12.355Z,13.10
2018-12-13T07:46:22.707Z,13.40
2018-12-13T07:47:28.972Z,12.60
2018-12-13T07:48:32.043Z,13.40
2018-12-13T07:49:38.607Z,12.70
2018-12-13T07:50:39.129Z,13.70
2018-12-13T07:51:50.096Z,13.00
2018-12-13T07:52:53.587Z,12.90
2018-12-13T07:53:50.315Z,13.00
2018-12-13T07:54:53.702Z,13.30
2018-12-13T07:56:06.927Z,13.60
2018-12-13T07:57:07.956Z,13.40
2018-12-13T07:58:13.290Z,13.20
2018-12-13T07:59:23.945Z,13.30
2018-12-13T08:00:26.004Z,14.00
2018-12-13T08:01:36.262Z,13.50
2018-12-13T08:02:44.151Z,13.60
2018-12-13T08:03:46.510Z,13.90
2018-12-13T08:05:00.243Z,13.60
2018-12-13T08:06:07.213Z,14.00
2018-12-13T08:06:59.645Z,13.90
2018-12-13T08:08:08.256Z,13.80
2018-12-13T08:09:16.150Z,14.30
2018-12-13T08:10:18.002Z,14.10
2018-12-13T08:11:27.740Z,13.90
2018-12-13T08:12:31.129Z,14.00
2018-12-13T08:13:43.015Z,14.10
2018-12-13T08:14:43.431Z,14.20
2018-12-13T08:15:45.386Z,13.90
2018-12-13T08:16:59.219Z,14.60
2018-12-13T08:18:02.605Z,14.30
2018-12-13T08:18:55.036Z,14.10
2018-12-13T08:20:08.155Z,14.30
2018-12-13T08:21:09.904Z,14.00
2018-12-13T08:22:15.344Z,13.50
2018-12-13T08:23:25.694Z,13.50
2018-12-13T08:24:27.443Z,13.80
2018-12-13T08:25:31.753Z,14.70
2018-12-13T08:26:48.656Z,13.90
2018-12-13T08:27:35.862Z,14.20
2018-12-13T08:28:53.177Z,13.60
2018-12-13T08:29:52.059Z,14.30
2018-12-13T08:31:00.258Z,14.60
2018-12-13T08:32:08.151Z,14.70
2018-12-13T08:33:22.300Z,14.50
2018-12-13T08:34:28.958Z,15.00
2018-12-13T08:35:26.608Z,14.20
2018-12-13T08:36:21.087Z,14.50
2018-12-13T08:37:35.232Z,14.00
2018-12-13T08:38:42.407Z,14.30
2018-12-13T08:39:48.559Z,14.30
2018-12-13T08:40:48.259Z,14.00
2018-12-13T08:41:59.331Z,14.50
2018-12-13T08:42:58.208Z,14.30
2018-12-13T08:44:16.341Z,14.70
2018-12-13T08:45:13.789Z,14.20
2018-12-13T08:46:22.921Z,15.40
2018-12-13T08:47:25.383Z,13.50
2018-12-13T08:48:28.768Z,14.80
2018-12-13T08:49:35.493Z,14.40
2018-12-13T08:50:36.667Z,14.50
2018-12-13T08:51:50.707Z,14.20
2018-12-13T08:52:48.225Z,14.60
2018-12-13T08:54:09.465Z,14.70
2018-12-13T08:55:13.364Z,14.20
2018-12-13T08:56:19.931Z,14.20
2018-12-13T08:57:12.560Z,14.50
2018-12-13T08:58:24.244Z,14.80
2018-12-13T08:59:29.574Z,14.50
2018-12-13T09:00:34.193Z,15.20
2018-12-13T09:01:35.735Z,14.50
2018-12-13T09:02:41.888Z,15.10
2018-12-13T09:03:52.750Z,14.00
2018-12-13T09:05:01.179Z,13.90
2018-12-13T09:06:08.642Z,14.00
2018-12-13T09:07:05.680Z,14.40
2018-12-13T09:08:09.581Z,14.10
2018-12-13T09:09:19.115Z,14.20
2018-12-13T09:10:23.833Z,14.30
2018-12-13T09:11:26.820Z,14.30
2018-12-13T09:12:36.756Z,14.70
2018-12-13T09:13:39.845Z,14.70
2018-12-13T09:14:50.606Z,14.20
2018-12-13T09:15:46.716Z,14.20
2018-12-13T09:16:54.409Z,14.70
2018-12-13T09:18:08.548Z,14.30
2018-12-13T09:19:09.579Z,14.00
2018-12-13T09:20:08.463Z,14.30
2018-12-13T09:21:15.231Z,13.80
2018-12-13T09:22:24.967Z,14.40
2018-12-13T09:23:29.380Z,13.80
2018-12-13T09:24:29.797Z,14.50
2018-12-13T09:25:39.842Z,14.10
2018-12-13T09:26:49.885Z,14.60
2018-12-13T09:27:53.478Z,13.90
2018-12-13T09:28:59.323Z,13.70
2018-12-13T09:30:14.693Z,14.10
2018-12-13T09:31:17.364Z,14.00
2018-12-13T09:32:21.271Z,13.70
2018-12-13T09:33:22.091Z,13.80
2018-12-13T09:34:30.196Z,14.00
2018-12-13T09:35:40.026Z,13.50
2018-12-13T09:36:41.879Z,13.80
2018-12-13T09:37:51.616Z,14.10
2018-12-13T09:38:51.220Z,14.10
2018-12-13T09:40:03.921Z,13.70
2018-12-13T09:41:03.830Z,13.80
2018-12-13T09:42:21.450Z,14.20
2018-12-13T09:43:30.982Z,14.30
2018-12-13T09:44:18.400Z,13.90
2018-12-13T09:45:32.328Z,14.70
2018-12-13T09:46:32.143Z,14.10
2018-12-13T09:47:40.917Z,14.10
2018-12-13T09:48:49.424Z,14.40
2018-12-13T09:49:55.208Z,14.00
2018-12-13T09:50:51.833Z,14.10
2018-12-13T09:52:07.609Z,13.40
2018-12-13T09:53:16.893Z,13.90
2018-12-13T09:54:07.115Z,13.80
2018-12-13T09:55:21.260Z,13.50
2018-12-13T09:56:11.432Z,13.90
2018-12-13T09:57:32.229Z,13.50
2018-12-13T09:58:33.477Z,13.70
2018-12-13T09:59:55.391Z,13.90
2018-12-13T10:00:53.146Z,13.60
2018-12-13T10:01:57.058Z,13.80
2018-12-13T10:02:54.190Z,14.20
2018-12-13T10:04:12.749Z,13.90
2018-12-13T10:05:12.536Z,13.60
2018-12-13T10:06:23.404Z,13.50
2018-12-13T10:07:16.859Z,14.00
2018-12-13T10:08:33.667Z,13.80
2018-12-13T10:09:41.553Z,13.50
2018-12-13T10:10:38.593Z,14.00
2018-12-13T10:11:43.616Z,13.90
2018-12-13T10:12:52.123Z,13.10
2018-12-13T10:13:54.284Z,13.90
2018-12-13T10:15:04.227Z,13.60
2018-12-13T10:16:13.755Z,13.90
2018-12-13T10:17:08.648Z,13.50
2018-12-13T10:18:11.627Z,13.90
2018-12-13T10:19:17.163Z,13.50
2018-12-13T10:20:22.598Z,13.50
2018-12-13T10:21:28.445Z,13.60
2018-12-13T10:22:34.400Z,13.90
2018-12-13T10:23:36.550Z,14.00
2018-12-13T10:24:40.041Z,13.60
2018-12-13T10:25:59.728Z,13.60
2018-12-13T10:27:00.233Z,13.60
2018-12-13T10:28:01.879Z,13.70
2018-12-13T10:29:19.706Z,13.30
2018-12-13T10:30:03.741Z,13.70
2018-12-13T10:31:33.854Z,14.20
2018-12-13T10:32:15.429Z,13.30
2018-12-13T10:33:29.875Z,13.40
2018-12-13T10:34:27.530Z,13.40
2018-12-13T10:35:46.185Z,13.50
2018-12-13T10:36:56.331Z,13.20
2018-12-13T10:37:53.266Z,13.30
2018-12-13T10:39:10.372Z,12.90
2018-12-13T10:39:58.294Z,13.10
2018-12-13T10:41:06.291Z,13.90
2018-12-13T10:42:02.919Z,13.20
2018-12-13T10:43:13.884Z,12.40
2018-12-13T10:44:23.926Z,12.70
2018-12-13T10:45:35.095Z,13.40
2018-12-13T10:46:28.448Z,12.90
2018-12-13T10:47:37.373Z,13.40
2018-12-13T10:48:41.689Z,12.90
2018-12-13T10:49:52.334Z,13.10
2018-12-13T10:50:55.113Z,12.90
2018-12-13T10:52:05.824Z,13.10
2018-12-13T10:52:58.195Z,13.50
2018-12-13T10:54:18.068Z,12.50
2018-12-13T10:55:23.913Z,12.40
2018-12-13T10:56:29.766Z,12.80
2018-12-13T10:57:35.706Z,12.90
2018-12-13T10:58:44.625Z,13.30
2018-12-13T10:59:49.042Z,13.40
2018-12-13T11:00:35.638Z,12.60
2018-12-13T11:01:54.910Z,12.80
2018-12-13T11:03:00.125Z,12.10
2018-12-13T11:04:05.364Z,12.70
2018-12-13T11:05:14.988Z,12.50
2018-12-13T11:06:22.270Z,12.30
2018-12-13T11:07:31.497Z,12.40
2018-12-13T11:08:25.160Z,12.40
2018-12-13T11:09:28.747Z,12.90
2018-12-13T11:10:35.922Z,12.40
2018-12-13T11:11:41.049Z,12.60
2018-12-13T11:12:46.900Z,12.50
2018-12-13T11:13:58.690Z,12.30
2018-12-13T11:15:00.636Z,12.20
2018-12-13T11:16:01.669Z,12.10
2018-12-13T11:17:05.568Z,12.70
2018-12-13T11:18:16.432Z,12.40
2018-12-13T11:19:25.046Z,12.00
2018-12-13T11:20:25.974Z,12.30
2018-12-13T11:21:32.127Z,12.50
2018-12-13T11:22:48.114Z,12.80
2018-12-13T11:23:45.073Z,12.60
2018-12-13T11:24:48.338Z,12.30
2018-12-13T11:25:50.905Z,12.70
2018-12-13T11:27:03.088Z,12.70
2018-12-13T11:28:08.741Z,12.30
2018-12-13T11:29:13.559Z,12.90
2018-12-13T11:30:26.572Z,13.00
2018-12-13T11:31:19.411Z,13.10
2018-12-13T11:32:47.387Z,11.90
2018-12-13T11:33:31.205Z,12.30
2018-12-13T11:34:59.375Z,12.00
2018-12-13T11:36:02.659Z,12.60
2018-12-13T11:36:58.470Z,12.30
2018-12-13T11:37:49.574Z,12.30
2018-12-13T11:39:29.515Z,12.10
2018-12-13T11:40:05.128Z,12.20
2018-12-13T11:41:39.376Z,12.30
2018-12-13T11:42:28.521Z,12.60
2018-12-13T11:43:56.381Z,12.30
2018-12-13T11:44:49.843Z,11.70
2018-12-13T11:45:55.067Z,11.70
2018-12-13T11:47:17.092Z,12.90
2018-12-13T11:48:07.781Z,12.50
2018-12-13T11:48:53.323Z,12.50
2018-12-13T11:50:25.413Z,11.80
2018-12-13T11:51:03.105Z,12.40
2018-12-13T11:52:33.464Z,12.60
2018-12-13T11:53:44.490Z,11.60
2018-12-13T11:54:37.671Z,11.80
2018-12-13T11:56:07.238Z,11.90
2018-12-13T11:57:01.104Z,11.90
2018-12-13T11:58:12.386Z,12.10
2018-12-13T11:58:52.928Z,11.60
2018-12-13T12:00:19.396Z,11.60
2018-12-13T12:01:22.052Z,12.00
2018-12-13T12:02:33.001Z,12.10
2018-12-13T12:03:41.209Z,13.00
2018-12-13T12:04:45.514Z,11.90
2018-12-13T12:06:00.980Z,12.00
2018-12-13T12:06:40.916Z,11.90
2018-12-13T12:08:03.921Z,12.50
2018-12-13T12:08:57.154Z,12.20
2018-12-13T12:10:17.400Z,12.00
2018-12-13T12:11:04.923Z,12.00
2018-12-13T12:13:00.836Z,12.10
2018-12-13T12:13:59.206Z,11.90
2018-12-13T12:15:07.814Z,12.00
2018-12-13T12:16:12.024Z,11.70
2018-12-13T12:17:36.920Z,12.10
2018-12-13T12:18:32.220Z,12.10
2018-12-13T12:19:18.428Z,11.80
2018-12-13T12:20:42.778Z,11.90
2018-12-13T12:21:29.377Z,11.50
2018-12-13T12:23:08.092Z,12.00
2018-12-13T12:24:02.695Z,12.00
2018-12-13T12:25:20.711Z,11.90
2018-12-13T12:25:55.533Z,11.90
2018-12-13T12:27:04.138Z,12.50
2018-12-13T12:28:05.478Z,11.50
2018-12-13T12:29:29.051Z,12.30
2018-12-13T12:30:35.293Z,12.30
2018-12-13T12:31:19.942Z,11.50
2018-12-13T12:32:29.985Z,12.00
2018-12-13T12:33:39.311Z,12.00
2018-12-13T12:34:43.108Z,12.30
2018-12-13T12:35:41.794Z,12.30
2018-12-13T12:36:57.771Z,11.90
2018-12-13T12:37:57.676Z,12.00
2018-12-13T12:39:02.500Z,12.20
2018-12-13T12:40:04.354Z,11.70
2018-12-13T12:41:13.780Z,12.20
2018-12-13T12:42:09.592Z,12.10
2018-12-13T12:43:30.081Z,11.80
2018-12-13T12:44:20.669Z,12.00
2018-12-13T12:45:31.019Z,11.50
2018-12-13T12:46:33.794Z,11.70
2018-12-13T12:47:36.463Z,12.10
2018-12-13T12:48:48.351Z,11.90
2018-12-13T12:49:53.683Z,11.40
2018-12-13T12:50:52.875Z,12.00
2018-12-13T12:52:02.815Z,12.30
2018-12-13T12:53:07.840Z,12.00
2018-12-13T12:54:06.824Z,11.80
2018-12-13T12:55:18.609Z,11.60
2018-12-13T12:56:27.630Z,11.80
2018-12-13T12:57:25.906Z,11.40
2018-12-13T12:58:36.966Z,11.50
2018-12-13T12:59:30.728Z,11.10
2018-12-13T13:00:40.465Z,11.80
2018-12-13T13:01:55.629Z,11.90
2018-12-13T13:02:51.954Z,12.10
2018-12-13T13:04:06.092Z,12.10
2018-12-13T13:05:11.323Z,10.90
2018-12-13T13:06:07.145Z,11.60
2018-12-13T13:07:16.972Z,11.00
2018-12-13T13:08:28.349Z,11.80
2018-12-13T13:09:24.806Z,11.40
2018-12-13T13:10:29.092Z,12.00
2018-12-13T13:11:34.320Z,12.10
2018-12-13T13:12:39.441Z,12.00
2018-12-13T13:13:49.487Z,12.30
2018-12-13T13:14:54.929Z,12.10
2018-12-13T13:16:02.509Z,12.30
2018-12-13T13:17:04.464Z,12.10
2018-12-13T13:18:11.949Z,11.30
2018-12-13T13:19:09.497Z,11.80
2018-12-13T13:20:12.782Z,12.20
2018-12-13T13:21:24.774Z,12.20
2018-12-13T13:22:29.393Z,12.50
2018-12-13T13:23:35.664Z,11.80
2018-12-13T13:24:46.098Z,12.10
2018-12-13T13:25:52.761Z,11.60
2018-12-13T13:26:56.148Z,12.20
2018-12-13T13:27:57.079Z,11.90
2018-12-13T13:29:06.408Z,11.90
2018-12-13T13:30:09.898Z,11.70
2018-12-13T13:31:19.440Z,12.00
2018-12-13T13:32:19.850Z,12.10
2018-12-13T13:33:25.409Z,12.80
2018-12-13T13:34:27.853Z,13.20
2018-12-13T13:35:37.997Z,12.30
2018-12-13T13:36:44.159Z,12.40
2018-12-13T13:37:54.816Z,12.70
2018-12-13T13:39:03.625Z,13.30
2018-12-13T13:39:54.724Z,13.20
2018-12-13T13:41:04.666Z,12.50
2018-12-13T13:42:15.634Z,12.60
2018-12-13T13:43:20.150Z,12.90
2018-12-13T13:44:17.088Z,12.80
2018-12-13T13:45:30.097Z,13.10
2018-12-13T13:46:37.069Z,13.80
2018-12-13T13:47:33.394Z,12.60
2018-12-13T13:48:45.233Z,12.40
2018-12-13T13:49:55.840Z,13.70
2018-12-13T13:50:52.973Z,13.30
2018-12-13T13:51:55.850Z,13.10
2018-12-13T13:53:05.180Z,13.20
2018-12-13T13:54:16.348Z,13.60
2018-12-13T13:55:26.390Z,13.00
2018-12-13T13:56:27.632Z,12.80
2018-12-13T13:57:33.792Z,13.00
2018-12-13T13:58:26.020Z,12.70
2018-12-13T13:59:43.530Z,12.70
2018-12-13T14:00:37.674Z,12.50
2018-12-13T14:01:45.286Z,12.50
2018-12-13T14:02:51.133Z,12.80
2018-12-13T14:03:56.981Z,12.90
2018-12-13T14:05:11.525Z,12.90
2018-12-13T14:06:07.852Z,13.40
2018-12-13T14:07:16.873Z,12.70
2018-12-13T14:08:33.577Z,12.60
2018-12-13T14:09:20.571Z,12.70